createdAt,value
2019-02-17T00:00:57.507Z,3.91
2019-02-17T00:01:56.087Z,3.91
2019-02-17T00:03:27.670Z,3.93
2019-02-17T00:04:27.673Z,3.84
2019-02-17T00:05:59.367Z,3.91
2019-02-17T00:06:58.329Z,3.91
2019-02-17T00:08:30.020Z,3.94
2019-02-17T00:09:28.083Z,3.91
2019-02-17T00:10:58.802Z,3.96
2019-02-17T00:11:58.779Z,3.97
2019-02-17T00:13:29.449Z,3.98
2019-02-17T00:14:29.430Z,3.88
2019-02-17T00:16:01.513Z,3.88
2019-02-17T00:17:01.081Z,3.76
2019-02-17T00:18:31.758Z,3.88
2019-02-17T00:19:32.653Z,3.78
2019-02-17T00:21:02.471Z,3.78
2019-02-17T00:22:02.472Z,3.73
2019-02-17T00:23:34.021Z,3.60
2019-02-17T00:24:33.992Z,3.58
2019-02-17T00:26:06.179Z,3.60
2019-02-17T00:27:03.739Z,3.58
2019-02-17T00:28:34.465Z,3.61
2019-02-17T00:29:35.309Z,3.55
2019-02-17T00:31:06.015Z,3.51
2019-02-17T00:32:55.637Z,3.42
2019-02-17T00:33:56.127Z,3.42
2019-02-17T00:35:26.309Z,3.47
2019-02-17T00:36:26.768Z,3.40
2019-02-17T00:37:57.549Z,3.32
2019-02-17T00:38:57.531Z,3.35
2019-02-17T00:40:28.227Z,3.28
2019-02-17T00:41:28.241Z,3.28
2019-02-17T00:42:58.892Z,3.28
2019-02-17T00:43:59.763Z,3.13
2019-02-17T00:45:29.967Z,3.11
2019-02-17T00:46:29.523Z,3.13
2019-02-17T00:48:01.107Z,3.08
2019-02-17T00:49:00.197Z,3.05
2019-02-17T00:50:32.814Z,3.06
2019-02-17T00:51:32.754Z,3.03
2019-02-17T00:53:02.401Z,3.00
2019-02-17T00:54:01.974Z,3.00
2019-02-17T00:55:33.554Z,3.02
2019-02-17T00:56:33.554Z,2.96
2019-02-17T00:58:05.221Z,2.87
2019-02-17T00:59:10.045Z,2.85
2019-02-17T01:00:37.397Z,2.79
2019-02-17T01:01:35.980Z,2.87
2019-02-17T01:03:06.134Z,2.82
2019-02-17T01:04:06.104Z,2.71
2019-02-17T01:05:36.791Z,2.66
2019-02-17T01:07:26.887Z,2.64
2019-02-17T01:08:26.873Z,2.77
2019-02-17T01:10:00.449Z,2.74
2019-02-17T01:11:48.713Z,2.79
2019-02-17T01:13:39.724Z,2.79
2019-02-17T01:14:39.726Z,2.87
2019-02-17T01:16:10.553Z,2.93
2019-02-17T01:17:10.501Z,2.90
2019-02-17T01:18:41.592Z,2.93
2019-02-17T01:19:41.174Z,2.89
2019-02-17T01:21:12.743Z,2.85
2019-02-17T01:22:11.864Z,2.81
2019-02-17T01:23:42.984Z,2.79
2019-02-17T01:24:42.583Z,2.72
2019-02-17T01:26:13.225Z,2.78
2019-02-17T01:28:06.232Z,2.75
2019-02-17T01:29:04.327Z,2.69
2019-02-17T01:30:35.004Z,2.71
2019-02-17T01:31:34.982Z,2.69
2019-02-17T01:33:06.078Z,2.63
2019-02-17T01:34:05.659Z,2.63
2019-02-17T01:35:38.196Z,2.60
2019-02-17T01:36:39.791Z,2.64
2019-02-17T01:38:11.762Z,2.56
2019-02-17T01:39:09.879Z,2.57
2019-02-17T01:40:44.413Z,2.57
2019-02-17T01:41:40.517Z,2.56
2019-02-17T01:43:11.602Z,2.59
2019-02-17T01:44:12.083Z,2.60
2019-02-17T01:45:44.277Z,2.63
2019-02-17T01:46:42.870Z,2.72
2019-02-17T01:48:13.639Z,2.69
2019-02-17T01:49:13.564Z,2.71
2019-02-17T01:50:44.269Z,2.63
2019-02-17T01:51:44.224Z,2.63
2019-02-17T01:53:14.917Z,2.63
2019-02-17T01:55:05.933Z,2.69
2019-02-17T01:56:05.027Z,2.64
2019-02-17T01:57:35.752Z,2.75
2019-02-17T01:58:35.735Z,2.69
2019-02-17T02:00:08.305Z,2.71
2019-02-17T02:01:07.444Z,2.64
2019-02-17T02:02:39.031Z,2.67
2019-02-17T02:03:38.117Z,2.61
2019-02-17T02:05:11.714Z,2.66
2019-02-17T02:06:09.875Z,2.48
2019-02-17T02:07:40.601Z,2.48
2019-02-17T02:08:40.564Z,2.46
2019-02-17T02:10:11.278Z,2.52
2019-02-17T02:11:11.243Z,2.39
2019-02-17T02:12:42.814Z,2.34
2019-02-17T02:13:41.938Z,2.30
2019-02-17T02:15:13.489Z,2.31
2019-02-17T02:16:12.578Z,2.34
2019-02-17T02:17:44.168Z,2.24
2019-02-17T02:18:43.240Z,2.28
2019-02-17T02:20:13.966Z,2.27
2019-02-17T02:21:14.812Z,2.23
2019-02-17T02:22:46.509Z,2.21
2019-02-17T02:23:46.495Z,2.23
2019-02-17T02:25:17.615Z,2.18
2019-02-17T02:26:16.735Z,2.27
2019-02-17T02:27:48.793Z,2.17
2019-02-17T02:28:47.422Z,2.16
2019-02-17T02:30:18.139Z,2.23
2019-02-17T02:31:19.012Z,2.21
2019-02-17T02:32:49.709Z,2.23
2019-02-17T02:34:38.964Z,2.14
2019-02-17T02:35:39.790Z,2.12
2019-02-17T02:37:09.599Z,2.02
2019-02-17T02:38:10.490Z,2.03
2019-02-17T02:39:41.254Z,2.10
2019-02-17T02:40:41.241Z,2.09
2019-02-17T02:42:12.915Z,2.02
2019-02-17T02:43:12.881Z,2.07
2019-02-17T02:44:43.570Z,2.05
2019-02-17T02:45:44.454Z,2.03
2019-02-17T02:47:15.609Z,2.00
2019-02-17T02:49:03.803Z,2.06
2019-02-17T02:50:03.789Z,2.07
2019-02-17T02:51:34.809Z,2.12
2019-02-17T02:52:33.901Z,2.07
2019-02-17T02:54:04.615Z,2.00
2019-02-17T02:55:04.600Z,2.09
2019-02-17T02:56:35.321Z,2.05
2019-02-17T02:57:36.190Z,2.03
2019-02-17T02:59:05.969Z,2.06
2019-02-17T03:00:05.938Z,2.02
2019-02-17T03:01:36.687Z,2.03
2019-02-17T03:02:36.642Z,2.05
2019-02-17T03:04:07.773Z,2.00
2019-02-17T03:05:07.312Z,2.06
2019-02-17T03:06:38.877Z,2.03
2019-02-17T03:07:37.987Z,2.06
2019-02-17T03:09:08.652Z,2.06
2019-02-17T03:10:08.655Z,1.98
2019-02-17T03:11:40.242Z,2.03
2019-02-17T03:12:40.205Z,1.98
2019-02-17T03:14:10.917Z,2.00
2019-02-17T03:15:10.951Z,1.98
2019-02-17T03:16:41.055Z,1.95
2019-02-17T03:17:40.612Z,1.90
2019-02-17T03:19:12.218Z,1.93
2019-02-17T03:20:11.272Z,1.93
2019-02-17T03:21:41.952Z,1.86
2019-02-17T03:22:41.929Z,1.73
2019-02-17T03:24:12.074Z,1.77
2019-02-17T03:25:12.029Z,1.73
2019-02-17T03:26:43.598Z,1.70
2019-02-17T03:27:43.690Z,1.70
2019-02-17T03:29:14.372Z,1.66
2019-02-17T03:31:05.382Z,1.76
2019-02-17T03:32:04.453Z,1.80
2019-02-17T03:33:36.134Z,1.68
2019-02-17T03:35:26.259Z,1.66
2019-02-17T03:36:26.240Z,1.76
2019-02-17T03:37:57.845Z,1.79
2019-02-17T03:38:57.832Z,1.72
2019-02-17T03:40:29.498Z,1.73
2019-02-17T03:41:28.559Z,1.63
2019-02-17T03:43:02.163Z,1.63
2019-02-17T03:43:59.254Z,1.73
2019-02-17T03:45:29.979Z,1.68
2019-02-17T03:46:29.934Z,1.66
2019-02-17T03:48:00.634Z,1.60
2019-02-17T03:49:00.616Z,1.58
2019-02-17T03:50:32.688Z,1.62
2019-02-17T03:51:31.321Z,1.54
2019-02-17T03:53:02.042Z,1.45
2019-02-17T03:54:01.996Z,1.50
2019-02-17T03:55:33.104Z,1.52
2019-02-17T03:56:32.662Z,1.59
2019-02-17T03:58:03.355Z,1.62
2019-02-17T03:59:03.326Z,1.65
2019-02-17T04:00:34.004Z,1.50
2019-02-17T04:01:33.986Z,1.58
2019-02-17T04:03:09.601Z,1.54
2019-02-17T04:04:04.646Z,1.54
2019-02-17T04:05:35.338Z,1.52
2019-02-17T04:06:35.322Z,1.40
2019-02-17T04:08:06.046Z,1.41
2019-02-17T04:09:06.908Z,1.51
2019-02-17T04:10:37.731Z,1.50
2019-02-17T04:11:38.570Z,1.50
2019-02-17T04:13:09.779Z,1.40
2019-02-17T04:14:09.397Z,1.58
2019-02-17T04:15:39.498Z,1.41
2019-02-17T04:16:39.484Z,1.41
2019-02-17T04:18:11.203Z,1.37
2019-02-17T04:20:01.294Z,1.44
2019-02-17T04:21:02.192Z,1.42
2019-02-17T04:22:33.348Z,1.44
2019-02-17T04:23:32.032Z,1.50
2019-02-17T04:25:02.662Z,1.37
2019-02-17T04:26:03.535Z,1.42
2019-02-17T04:27:34.325Z,1.34
2019-02-17T04:28:35.208Z,1.34
2019-02-17T04:30:05.974Z,1.33
2019-02-17T04:31:05.952Z,1.34
2019-02-17T04:32:36.701Z,1.29
2019-02-17T04:33:36.677Z,1.34
2019-02-17T04:35:08.244Z,1.40
2019-02-17T04:36:07.299Z,1.27
2019-02-17T04:37:38.025Z,1.37
2019-02-17T04:38:37.960Z,1.27
2019-02-17T04:40:09.526Z,1.42
2019-02-17T04:41:08.605Z,1.42
2019-02-17T04:42:41.194Z,1.44
2019-02-17T04:43:40.304Z,1.40
2019-02-17T04:45:11.898Z,1.36
2019-02-17T04:46:11.879Z,1.41
2019-02-17T04:47:42.656Z,1.36
2019-02-17T04:48:42.645Z,1.34
2019-02-17T04:50:13.447Z,1.50
2019-02-17T04:51:14.202Z,1.36
2019-02-17T04:52:44.095Z,1.45
2019-02-17T04:53:44.066Z,1.42
2019-02-17T04:55:16.642Z,1.37
2019-02-17T04:56:15.718Z,1.41
2019-02-17T04:57:47.296Z,1.44
2019-02-17T04:58:46.367Z,1.30
2019-02-17T05:00:18.964Z,1.42
2019-02-17T05:01:17.080Z,1.34
2019-02-17T05:02:48.671Z,1.41
2019-02-17T05:03:47.749Z,1.40
2019-02-17T05:05:19.316Z,1.34
2019-02-17T05:06:19.310Z,1.29
2019-02-17T05:07:49.132Z,1.24
2019-02-17T05:08:49.097Z,1.22
2019-02-17T05:10:19.245Z,0.94
2019-02-17T05:12:09.352Z,0.94
2019-02-17T05:13:09.318Z,0.86
2019-02-17T05:14:40.062Z,0.90
2019-02-17T05:15:40.018Z,0.90
2019-02-17T05:17:10.720Z,1.00
2019-02-17T05:18:10.698Z,1.00
2019-02-17T05:19:41.425Z,1.15
2019-02-17T05:20:42.261Z,1.09
2019-02-17T05:22:13.069Z,1.18
2019-02-17T05:23:13.060Z,1.20
2019-02-17T05:24:44.622Z,1.24
2019-02-17T05:25:43.708Z,1.15
2019-02-17T05:27:15.401Z,1.22
2019-02-17T05:28:15.364Z,1.23
2019-02-17T05:29:46.117Z,1.24
2019-02-17T05:30:53.005Z,1.26
2019-02-17T05:32:17.787Z,1.22
2019-02-17T05:33:18.675Z,1.26
2019-02-17T05:34:48.505Z,1.22
2019-02-17T05:35:48.472Z,1.32
2019-02-17T05:37:20.037Z,1.29
2019-02-17T05:38:19.128Z,1.16
2019-02-17T05:39:51.694Z,1.18
2019-02-17T05:40:50.776Z,1.24
2019-02-17T05:42:21.483Z,1.27
2019-02-17T05:43:22.351Z,1.24
2019-02-17T05:44:52.130Z,1.20
2019-02-17T05:45:52.149Z,1.22
2019-02-17T05:47:22.801Z,1.14
2019-02-17T05:48:22.776Z,1.18
2019-02-17T05:49:54.791Z,1.20
2019-02-17T05:50:52.907Z,1.12
2019-02-17T05:52:23.571Z,1.06
2019-02-17T05:53:23.590Z,1.02
2019-02-17T05:54:54.259Z,1.04
2019-02-17T05:55:54.238Z,1.12
2019-02-17T05:57:26.312Z,1.09
2019-02-17T05:58:24.890Z,1.05
2019-02-17T05:59:55.017Z,0.90
2019-02-17T06:01:03.445Z,0.98
2019-02-17T06:02:27.078Z,0.96
2019-02-17T06:03:26.667Z,0.93
2019-02-17T06:04:57.351Z,0.88
2019-02-17T06:05:57.312Z,0.94
2019-02-17T06:07:28.042Z,0.90
2019-02-17T06:08:28.025Z,0.93
2019-02-17T06:09:59.583Z,1.02
2019-02-17T06:10:58.669Z,0.90
2019-02-17T06:12:29.381Z,1.00
2019-02-17T06:13:29.369Z,1.05
2019-02-17T06:15:00.937Z,1.00
2019-02-17T06:16:00.029Z,0.98
2019-02-17T06:17:32.594Z,1.02
2019-02-17T06:18:30.740Z,0.93
2019-02-17T06:20:01.379Z,1.06
2019-02-17T06:21:01.365Z,1.05
2019-02-17T06:22:34.937Z,1.05
2019-02-17T06:23:32.925Z,1.12
2019-02-17T06:25:02.730Z,1.15
2019-02-17T06:26:02.712Z,1.20
2019-02-17T06:27:33.419Z,1.24
2019-02-17T06:28:34.277Z,1.26
2019-02-17T06:30:04.952Z,1.08
2019-02-17T06:31:13.983Z,0.96
2019-02-17T06:32:35.740Z,1.02
2019-02-17T06:33:36.609Z,1.15
2019-02-17T06:35:07.389Z,1.15
2019-02-17T06:36:07.380Z,1.15
2019-02-17T06:37:38.144Z,1.26
2019-02-17T06:38:38.069Z,1.20
2019-02-17T06:40:08.753Z,1.30
2019-02-17T06:41:08.719Z,1.36
2019-02-17T06:42:39.740Z,1.29
2019-02-17T06:43:38.829Z,1.50
2019-02-17T06:45:09.501Z,1.41
2019-02-17T06:46:09.473Z,1.58
2019-02-17T06:47:39.609Z,1.63
2019-02-17T06:48:39.616Z,1.68
2019-02-17T06:50:10.260Z,1.68
2019-02-17T06:51:10.225Z,1.66
2019-02-17T06:52:40.977Z,1.76
2019-02-17T06:53:40.943Z,1.77
2019-02-17T06:55:11.615Z,1.76
2019-02-17T06:56:11.594Z,1.60
2019-02-17T06:57:42.691Z,1.68
2019-02-17T06:58:42.338Z,1.70
2019-02-17T07:00:12.991Z,1.76
2019-02-17T07:01:12.969Z,1.80
2019-02-17T07:02:43.711Z,1.91
2019-02-17T07:03:43.693Z,2.00
2019-02-17T07:05:14.429Z,1.95
2019-02-17T07:06:14.413Z,1.87
2019-02-17T07:07:45.096Z,1.88
2019-02-17T07:08:45.063Z,1.84
2019-02-17T07:10:15.771Z,1.90
2019-02-17T07:11:15.766Z,2.02
2019-02-17T07:12:46.456Z,2.09
2019-02-17T07:13:46.429Z,2.10
2019-02-17T07:14:46.441Z,2.18
2019-02-17T07:15:46.401Z,2.38
2019-02-17T07:16:46.395Z,2.57
2019-02-17T07:17:46.383Z,2.66
2019-02-17T07:18:46.391Z,2.89
2019-02-17T07:19:46.369Z,3.05
2019-02-17T07:20:46.373Z,3.39
2019-02-17T07:21:46.339Z,3.69
2019-02-17T07:22:46.329Z,3.98
2019-02-17T07:23:46.323Z,4.29
2019-02-17T07:24:46.308Z,4.58
2019-02-17T07:25:46.317Z,4.88
2019-02-17T07:26:46.293Z,5.13
2019-02-17T07:27:46.277Z,5.48
2019-02-17T07:28:46.267Z,5.68
2019-02-17T07:29:46.263Z,5.97
2019-02-17T07:30:46.243Z,6.11
2019-02-17T07:31:46.247Z,6.44
2019-02-17T07:32:46.221Z,6.62
2019-02-17T07:33:46.215Z,6.73
2019-02-17T07:34:46.212Z,6.80
2019-02-17T07:36:16.949Z,6.92
2019-02-17T07:37:19.221Z,7.15
2019-02-17T07:38:48.665Z,7.23
2019-02-17T07:39:48.596Z,7.05
2019-02-17T07:41:19.593Z,6.94
2019-02-17T07:42:19.543Z,7.07
2019-02-17T07:43:50.231Z,7.43
2019-02-17T07:44:50.195Z,7.53
2019-02-17T07:46:21.804Z,7.83
2019-02-17T07:47:21.775Z,7.67
2019-02-17T07:48:52.460Z,7.95
2019-02-17T07:49:52.443Z,8.30
2019-02-17T07:51:23.156Z,8.81
2019-02-17T07:52:23.116Z,9.24
2019-02-17T07:53:23.105Z,9.47
2019-02-17T07:54:23.104Z,9.66
2019-02-17T07:55:23.096Z,10.18
2019-02-17T07:56:23.095Z,10.32
2019-02-17T07:57:23.058Z,10.67
2019-02-17T07:58:23.055Z,10.66
2019-02-17T07:59:23.041Z,10.88
2019-02-17T08:00:23.033Z,10.70
2019-02-17T08:01:23.030Z,10.53
2019-02-17T08:02:23.014Z,10.42
2019-02-17T08:03:23.003Z,10.01
2019-02-17T08:04:23.182Z,10.07
2019-02-17T08:05:22.979Z,9.89
2019-02-17T08:06:22.990Z,9.79
2019-02-17T08:07:22.965Z,10.23
2019-02-17T08:08:22.961Z,10.56
2019-02-17T08:09:22.944Z,10.96
2019-02-17T08:11:03.478Z,10.92
2019-02-17T08:11:54.589Z,11.33
2019-02-17T08:13:24.684Z,11.21
2019-02-17T08:14:24.241Z,11.46
2019-02-17T08:15:54.938Z,10.96
2019-02-17T08:16:54.918Z,10.66
2019-02-17T08:18:25.619Z,11.17
2019-02-17T08:19:25.594Z,11.64
2019-02-17T08:20:25.584Z,11.51
2019-02-17T08:21:25.574Z,11.85
2019-02-17T08:22:25.640Z,12.20
2019-02-17T08:23:25.546Z,12.28
2019-02-17T08:24:25.547Z,12.53
2019-02-17T08:25:25.520Z,12.70
2019-02-17T08:26:25.515Z,12.64
2019-02-17T08:27:25.507Z,13.23
2019-02-17T08:28:25.495Z,12.85
2019-02-17T08:29:25.524Z,13.11
2019-02-17T08:30:25.484Z,13.46
2019-02-17T08:31:25.477Z,14.07
2019-02-17T08:32:25.466Z,14.27
2019-02-17T08:33:25.455Z,14.42
2019-02-17T08:34:25.444Z,14.35
2019-02-17T08:35:25.425Z,14.75
2019-02-17T08:36:25.425Z,14.52
2019-02-17T08:37:25.400Z,13.89
2019-02-17T08:38:25.413Z,13.38
2019-02-17T08:39:25.395Z,13.39
2019-02-17T08:40:25.364Z,13.03
2019-02-17T08:41:25.364Z,13.66
2019-02-17T08:42:25.373Z,13.69
2019-02-17T08:43:25.340Z,13.97
2019-02-17T08:44:25.336Z,14.29
2019-02-17T08:45:25.318Z,14.72
2019-02-17T08:46:25.310Z,14.95
2019-02-17T08:47:25.295Z,15.60
2019-02-17T08:48:25.279Z,15.62
2019-02-17T08:49:25.282Z,14.72
2019-02-17T08:50:25.261Z,14.69
2019-02-17T08:51:25.273Z,14.18
2019-02-17T08:52:25.298Z,14.58
2019-02-17T08:53:25.231Z,14.69
2019-02-17T08:54:25.216Z,15.07
2019-02-17T08:55:25.204Z,15.62
2019-02-17T08:56:25.192Z,15.92
2019-02-17T08:57:25.197Z,16.27
2019-02-17T08:58:25.175Z,16.52
2019-02-17T08:59:25.167Z,16.14
2019-02-17T09:00:25.152Z,16.61
2019-02-17T09:01:25.163Z,15.62
2019-02-17T09:02:25.128Z,14.86
2019-02-17T09:03:25.117Z,14.96
2019-02-17T09:04:25.111Z,15.14
2019-02-17T09:05:25.122Z,15.11
2019-02-17T09:06:25.091Z,14.99
2019-02-17T09:07:25.093Z,14.89
2019-02-17T09:08:25.092Z,14.92
2019-02-17T09:09:25.068Z,14.96
2019-02-17T09:10:25.054Z,14.68
2019-02-17T09:11:25.033Z,15.02
2019-02-17T09:12:25.035Z,15.44
2019-02-17T09:13:25.010Z,15.68
2019-02-17T09:14:25.017Z,16.09
2019-02-17T09:15:24.998Z,16.31
2019-02-17T09:16:24.985Z,16.12
2019-02-17T09:17:24.976Z,15.92
2019-02-17T09:18:24.964Z,15.54
2019-02-17T09:19:24.965Z,15.62
2019-02-17T09:20:24.966Z,14.96
2019-02-17T09:21:24.930Z,14.78
2019-02-17T09:22:24.926Z,14.17
2019-02-17T09:23:24.913Z,13.59
2019-02-17T09:24:24.901Z,13.39
2019-02-17T09:25:24.888Z,13.66
2019-02-17T09:26:24.876Z,13.91
2019-02-17T09:27:24.877Z,14.12
2019-02-17T09:28:24.880Z,14.27
2019-02-17T09:29:24.875Z,14.45
2019-02-17T09:30:24.859Z,14.46
2019-02-17T09:31:24.835Z,14.72
2019-02-17T09:32:24.818Z,14.62
2019-02-17T09:33:24.847Z,14.20
2019-02-17T09:34:24.797Z,13.51
2019-02-17T09:35:24.782Z,13.63
2019-02-17T09:36:24.773Z,13.54
2019-02-17T09:37:24.770Z,13.64
2019-02-17T09:38:24.777Z,13.81
2019-02-17T09:39:24.756Z,14.28
2019-02-17T09:40:24.764Z,14.50
2019-02-17T09:41:24.730Z,14.47
2019-02-17T09:42:24.707Z,14.69
2019-02-17T09:43:24.713Z,14.96
2019-02-17T09:44:24.707Z,15.25
2019-02-17T09:45:24.688Z,15.47
2019-02-17T09:46:24.697Z,15.57
2019-02-17T09:47:24.667Z,15.74
2019-02-17T09:48:24.654Z,15.89
2019-02-17T09:49:24.655Z,16.07
2019-02-17T09:50:24.639Z,15.92
2019-02-17T09:51:24.622Z,16.05
2019-02-17T09:52:24.606Z,16.20
2019-02-17T09:53:24.598Z,16.46
2019-02-17T09:54:24.593Z,16.45
2019-02-17T09:55:24.585Z,15.86
2019-02-17T09:56:24.583Z,15.43
2019-02-17T09:57:24.564Z,14.61
2019-02-17T09:58:24.545Z,14.37
2019-02-17T09:59:24.536Z,14.18
2019-02-17T10:00:24.525Z,13.32
2019-02-17T10:01:24.519Z,12.89
2019-02-17T10:02:26.780Z,12.82
2019-02-17T10:03:24.487Z,12.85
2019-02-17T10:04:24.488Z,13.05
2019-02-17T10:05:24.470Z,13.10
2019-02-17T10:06:24.465Z,12.87
2019-02-17T10:07:24.458Z,13.10
2019-02-17T10:08:24.458Z,13.41
2019-02-17T10:09:24.431Z,13.55
2019-02-17T10:10:24.422Z,13.60
2019-02-17T10:11:24.402Z,13.96
2019-02-17T10:12:24.399Z,13.99
2019-02-17T10:13:24.402Z,14.04
2019-02-17T10:14:24.406Z,13.88
2019-02-17T10:15:24.370Z,14.02
2019-02-17T10:16:24.530Z,14.04
2019-02-17T10:17:24.349Z,13.60
2019-02-17T10:18:24.337Z,13.48
2019-02-17T10:19:24.333Z,13.70
2019-02-17T10:20:24.630Z,13.82
2019-02-17T10:21:24.306Z,14.04
2019-02-17T10:22:24.336Z,14.15
2019-02-17T10:23:24.290Z,14.18
2019-02-17T10:24:24.607Z,14.46
2019-02-17T10:25:24.277Z,14.65
2019-02-17T10:26:24.254Z,14.36
2019-02-17T10:27:24.242Z,13.99
2019-02-17T10:28:24.241Z,13.81
2019-02-17T10:29:24.231Z,13.51
2019-02-17T10:30:24.210Z,13.33
2019-02-17T10:31:24.225Z,13.49
2019-02-17T10:32:24.190Z,13.33
2019-02-17T10:33:24.177Z,13.41
2019-02-17T10:34:24.169Z,12.95
2019-02-17T10:35:24.175Z,13.17
2019-02-17T10:36:24.153Z,13.44
2019-02-17T10:37:24.146Z,13.22
2019-02-17T10:38:24.132Z,12.86
2019-02-17T10:39:24.116Z,12.86
2019-02-17T10:40:24.105Z,13.14
2019-02-17T10:41:24.093Z,13.49
2019-02-17T10:42:24.097Z,13.38
2019-02-17T10:43:24.100Z,13.69
2019-02-17T10:44:24.062Z,13.96
2019-02-17T10:45:24.059Z,13.22
2019-02-17T10:46:24.042Z,13.11
2019-02-17T10:47:24.057Z,13.08
2019-02-17T10:48:24.023Z,13.36
2019-02-17T10:49:24.033Z,13.32
2019-02-17T10:50:24.039Z,13.69
2019-02-17T10:51:26.358Z,14.00
2019-02-17T10:52:23.997Z,14.21
2019-02-17T10:53:23.967Z,14.42
2019-02-17T10:54:23.976Z,14.55
2019-02-17T10:55:23.945Z,14.18
2019-02-17T10:56:23.933Z,14.32
2019-02-17T10:57:23.929Z,14.17
2019-02-17T10:58:23.947Z,14.18
2019-02-17T10:59:23.907Z,14.29
2019-02-17T11:00:23.902Z,14.46
2019-02-17T11:01:23.888Z,14.27
2019-02-17T11:02:23.871Z,14.02
2019-02-17T11:03:23.859Z,13.88
2019-02-17T11:04:23.853Z,13.63
2019-02-17T11:05:23.863Z,13.66
2019-02-17T11:06:23.833Z,13.92
2019-02-17T11:07:23.818Z,14.07
2019-02-17T11:08:23.811Z,14.10
2019-02-17T11:09:23.897Z,14.03
2019-02-17T11:10:23.796Z,14.14
2019-02-17T11:11:23.783Z,14.37
2019-02-17T11:12:23.758Z,14.06
2019-02-17T11:13:23.751Z,14.15
2019-02-17T11:14:23.816Z,14.39
2019-02-17T11:15:23.775Z,14.62
2019-02-17T11:16:23.728Z,14.68
2019-02-17T11:17:23.714Z,14.22
2019-02-17T11:18:23.695Z,14.03
2019-02-17T11:19:23.691Z,13.51
2019-02-17T11:20:23.674Z,13.42
2019-02-17T11:21:23.667Z,13.60
2019-02-17T11:22:23.662Z,13.84
2019-02-17T11:23:23.694Z,13.69
2019-02-17T11:24:23.637Z,13.52
2019-02-17T11:25:23.625Z,13.29
2019-02-17T11:26:23.617Z,13.38
2019-02-17T11:27:23.606Z,13.54
2019-02-17T11:28:23.606Z,13.11
2019-02-17T11:29:23.578Z,13.32
2019-02-17T11:30:23.572Z,13.59
2019-02-17T11:31:23.735Z,13.85
2019-02-17T11:32:23.545Z,14.07
2019-02-17T11:33:23.555Z,14.00
2019-02-17T11:34:23.539Z,14.09
2019-02-17T11:35:23.522Z,14.20
2019-02-17T11:36:23.508Z,14.33
2019-02-17T11:37:23.498Z,14.35
2019-02-17T11:38:23.534Z,13.97
2019-02-17T11:39:23.501Z,13.91
2019-02-17T11:40:23.489Z,13.95
2019-02-17T11:41:23.463Z,13.88
2019-02-17T11:42:23.443Z,13.95
2019-02-17T11:43:23.440Z,14.04
2019-02-17T11:44:23.419Z,14.32
2019-02-17T11:45:23.419Z,14.32
2019-02-17T11:46:23.398Z,14.36
2019-02-17T11:47:23.392Z,14.55
2019-02-17T11:48:23.391Z,14.42
2019-02-17T11:49:23.357Z,14.35
2019-02-17T11:50:23.355Z,14.27
2019-02-17T11:51:23.402Z,14.36
2019-02-17T11:52:23.329Z,14.57
2019-02-17T11:53:23.322Z,14.70
2019-02-17T11:54:23.305Z,14.94
2019-02-17T11:55:23.307Z,15.21
2019-02-17T11:56:23.343Z,15.32
2019-02-17T11:57:23.292Z,15.46
2019-02-17T11:58:23.268Z,15.14
2019-02-17T11:59:23.266Z,15.34
2019-02-17T12:00:23.286Z,15.47
2019-02-17T12:01:23.233Z,15.43
2019-02-17T12:02:25.367Z,15.62
2019-02-17T12:03:23.211Z,15.44
2019-02-17T12:04:23.211Z,15.21
2019-02-17T12:05:23.197Z,15.03
2019-02-17T12:06:23.172Z,14.94
2019-02-17T12:07:23.171Z,14.98
2019-02-17T12:08:23.186Z,15.11
2019-02-17T12:09:23.142Z,15.16
2019-02-17T12:10:23.139Z,15.17
2019-02-17T12:11:23.142Z,14.86
2019-02-17T12:12:23.119Z,14.75
2019-02-17T12:13:23.112Z,14.89
2019-02-17T12:14:23.091Z,14.61
2019-02-17T12:15:23.081Z,14.32
2019-02-17T12:16:23.069Z,14.21
2019-02-17T12:17:23.073Z,14.18
2019-02-17T12:18:23.046Z,14.35
2019-02-17T12:19:23.059Z,14.35
2019-02-17T12:20:23.031Z,14.42
2019-02-17T12:21:23.014Z,14.43
2019-02-17T12:22:23.017Z,14.58
2019-02-17T12:23:23.037Z,14.50
2019-02-17T12:24:22.986Z,14.62
2019-02-17T12:25:22.970Z,14.69
2019-02-17T12:26:22.975Z,14.60
2019-02-17T12:27:22.974Z,14.45
2019-02-17T12:28:22.944Z,14.35
2019-02-17T12:29:22.927Z,14.40
2019-02-17T12:30:22.923Z,14.58
2019-02-17T12:31:22.907Z,14.64
2019-02-17T12:32:22.905Z,14.77
2019-02-17T12:33:22.886Z,14.95
2019-02-17T12:34:22.882Z,14.98
2019-02-17T12:35:23.057Z,15.14
2019-02-17T12:36:22.864Z,15.07
2019-02-17T12:37:22.841Z,15.19
2019-02-17T12:38:22.860Z,15.16
2019-02-17T12:39:22.830Z,14.98
2019-02-17T12:40:22.819Z,14.86
2019-02-17T12:41:23.992Z,14.81
2019-02-17T12:42:22.779Z,14.55
2019-02-17T12:43:53.901Z,14.64
2019-02-17T12:44:53.611Z,14.68
2019-02-17T12:46:24.201Z,14.57
2019-02-17T12:47:24.170Z,14.43
2019-02-17T12:48:54.946Z,14.32
2019-02-17T12:49:54.915Z,14.52
2019-02-17T12:51:25.612Z,14.46
2019-02-17T12:52:25.588Z,14.33
2019-02-17T12:53:56.304Z,14.29
2019-02-17T12:54:56.260Z,14.39
2019-02-17T12:56:26.426Z,14.36
2019-02-17T12:57:26.437Z,14.47
2019-02-17T12:58:57.975Z,14.62
2019-02-17T12:59:57.112Z,14.64
2019-02-17T13:01:27.965Z,14.68
2019-02-17T13:02:27.855Z,14.75
2019-02-17T13:03:58.598Z,14.88
2019-02-17T13:04:58.571Z,14.50
2019-02-17T13:06:44.706Z,14.52
2019-02-17T13:07:44.673Z,14.45
2019-02-17T13:09:15.390Z,14.69
2019-02-17T13:10:15.350Z,14.98
2019-02-17T13:11:48.510Z,15.03
2019-02-17T13:12:46.098Z,15.06
2019-02-17T13:14:16.730Z,14.84
2019-02-17T13:15:16.714Z,14.64
2019-02-17T13:16:47.402Z,14.64
2019-02-17T13:17:47.345Z,14.73
2019-02-17T13:19:17.499Z,14.72
2019-02-17T13:20:17.468Z,14.77
2019-02-17T13:21:48.307Z,14.86
2019-02-17T13:22:48.304Z,14.70
2019-02-17T13:24:19.404Z,14.68
2019-02-17T13:25:18.949Z,14.61
2019-02-17T13:26:49.665Z,14.61
2019-02-17T13:27:49.770Z,14.42
2019-02-17T13:29:20.726Z,14.42
2019-02-17T13:30:20.314Z,14.27
2019-02-17T13:31:51.028Z,14.22
2019-02-17T13:32:50.998Z,14.18
2019-02-17T13:34:22.002Z,14.20
2019-02-17T13:35:21.708Z,14.17
2019-02-17T13:36:52.412Z,14.00
2019-02-17T13:37:52.364Z,14.02
2019-02-17T13:39:23.151Z,14.04
2019-02-17T13:40:23.132Z,13.99
2019-02-17T13:41:53.853Z,13.97
2019-02-17T13:42:53.825Z,13.96
2019-02-17T13:43:53.816Z,13.92
2019-02-17T13:44:53.811Z,13.92
2019-02-17T13:45:53.793Z,13.88
2019-02-17T13:46:53.787Z,13.84
2019-02-17T13:47:53.803Z,13.81
2019-02-17T13:48:53.770Z,13.89
2019-02-17T13:49:53.771Z,13.85
2019-02-17T13:50:53.734Z,13.85
2019-02-17T13:51:53.733Z,13.96
2019-02-17T13:52:53.729Z,13.88
2019-02-17T13:53:53.717Z,14.00
2019-02-17T13:54:53.696Z,13.92
2019-02-17T13:55:53.683Z,13.91
2019-02-17T13:56:53.672Z,13.99
2019-02-17T13:57:53.675Z,13.95
2019-02-17T13:58:53.679Z,13.96
2019-02-17T13:59:53.645Z,13.95
2019-02-17T14:00:53.621Z,13.87
2019-02-17T14:01:53.619Z,13.89
2019-02-17T14:02:53.619Z,13.85
2019-02-17T14:03:53.611Z,13.88
2019-02-17T14:04:53.590Z,13.79
2019-02-17T14:06:24.268Z,13.79
2019-02-17T14:07:24.247Z,13.84
2019-02-17T14:08:54.931Z,13.81
2019-02-17T14:09:54.906Z,13.75
2019-02-17T14:10:54.905Z,13.77
2019-02-17T14:11:54.906Z,13.84
2019-02-17T14:12:54.877Z,13.88
2019-02-17T14:13:54.878Z,13.87
2019-02-17T14:14:54.868Z,13.88
2019-02-17T14:16:25.548Z,13.82
2019-02-17T14:17:25.521Z,13.79
2019-02-17T14:18:56.606Z,13.81
2019-02-17T14:19:56.203Z,13.73
2019-02-17T14:21:26.879Z,13.64
2019-02-17T14:22:26.839Z,13.75
2019-02-17T14:23:57.535Z,13.79
2019-02-17T14:24:57.509Z,13.67
2019-02-17T14:26:28.276Z,13.67
2019-02-17T14:27:28.200Z,13.59
2019-02-17T14:28:58.851Z,13.67
2019-02-17T14:29:58.863Z,13.63
2019-02-17T14:31:29.526Z,13.67
2019-02-17T14:32:29.506Z,13.78
2019-02-17T14:34:00.210Z,13.70
2019-02-17T14:35:00.229Z,13.79
2019-02-17T14:36:30.874Z,13.77
2019-02-17T14:37:30.854Z,13.71
2019-02-17T14:38:30.845Z,13.69
2019-02-17T14:39:30.847Z,13.66
2019-02-17T14:40:30.826Z,13.67
2019-02-17T14:41:30.821Z,13.63
2019-02-17T14:42:30.805Z,13.66
2019-02-17T14:43:30.790Z,13.66
2019-02-17T14:44:30.774Z,13.63
2019-02-17T14:45:30.775Z,13.62
2019-02-17T14:46:30.759Z,13.64
2019-02-17T14:47:30.751Z,13.63
2019-02-17T14:48:30.742Z,13.57
2019-02-17T14:49:30.766Z,13.69
2019-02-17T14:50:30.718Z,13.64
2019-02-17T14:51:30.725Z,13.54
2019-02-17T14:52:30.721Z,13.60
2019-02-17T14:53:30.687Z,13.54
2019-02-17T14:54:30.688Z,13.60
2019-02-17T14:55:30.746Z,13.55
2019-02-17T14:56:30.663Z,13.59
2019-02-17T14:57:30.651Z,13.48
2019-02-17T14:58:30.637Z,13.52
2019-02-17T14:59:30.630Z,13.54
2019-02-17T15:00:30.621Z,13.55
2019-02-17T15:01:30.596Z,13.51
2019-02-17T15:02:30.600Z,13.52